sensor_id;sensor_type;location;lat;lon;timestamp;P1;durP1;ratioP1;P2;durP2;ratioP2
50631;SDS011;49583;45.590;-122.498;2023-11-18T00:00:32;6.30;;;4.80;;
50631;SDS011;49583;45.590;-122.498;2023-11-18T00:03:14;6.80;;;5.20;;
50631;SDS011;49583;45.590;-122.498;2023-11-18T00:05:28;7.10;;;5.20;;
50631;SDS011;49583;45.590;-122.498;2023-11-18T00:07:41;7.40;;;5.20;;
50631;SDS011;49583;45.590;-122.498;2023-11-18T00:09:57;8.60;;;5.40;;
50631;SDS011;49583;45.590;-122.498;2023-11-18T00:12:09;6.60;;;5.20;;
50631;SDS011;49583;45.590;-122.498;2023-11-18T00:14:31;5.40;;;4.70;;
50631;SDS011;49583;45.590;-122.498;2023-11-18T00:19:23;6.60;;;4.90;;
50631;SDS011;49583;45.590;-122.498;2023-11-18T00:21:56;5.30;;;4.60;;
50631;SDS011;49583;45.590;-122.498;2023-11-18T00:24:29;7.00;;;5.10;;
50631;SDS011;49583;45.590;-122.498;2023-11-18T00:27:02;9.30;;;5.80;;
50631;SDS011;49583;45.590;-122.498;2023-11-18T00:29:25;7.00;;;6.00;;
50631;SDS011;49583;45.590;-122.498;2023-11-18T00:31:48;7.00;;;5.10;;
50631;SDS011;49583;45.590;-122.498;2023-11-18T00:34:21;6.90;;;5.30;;
50631;SDS011;49583;45.590;-122.498;2023-11-18T00:36:33;8.30;;;5.30;;
50631;SDS011;49583;45.590;-122.498;2023-11-18T00:38:49;6.80;;;5.00;;
50631;SDS011;49583;45.590;-122.498;2023-11-18T00:41:22;6.80;;;5.00;;
50631;SDS011;49583;45.590;-122.498;2023-11-18T00:43:47;10.80;;;5.30;;
50631;SDS011;49583;45.590;-122.498;2023-11-18T00:46:07;5.70;;;4.80;;
50631;SDS011;49583;45.590;-122.498;2023-11-18T00:48:30;8.10;;;5.10;;
50631;SDS011;49583;45.590;-122.498;2023-11-18T00:50:46;6.50;;;5.30;;
50631;SDS011;49583;45.590;-122.498;2023-11-18T00:53:03;10.30;;;5.40;;
50631;SDS011;49583;45.590;-122.498;2023-11-18T00:55:15;6.90;;;5.30;;
50631;SDS011;49583;45.590;-122.498;2023-11-18T00:57:48;9.20;;;5.90;;
50631;SDS011;49583;45.590;-122.498;2023-11-18T01:00:12;7.40;;;5.60;;
50631;SDS011;49583;45.590;-122.498;2023-11-18T01:02:32;6.30;;;6.00;;
50631;SDS011;49583;45.590;-122.498;2023-11-18T01:05:07;6.60;;;4.80;;
50631;SDS011;49583;45.590;-122.498;2023-11-18T01:07:32;10.30;;;5.10;;
50631;SDS011;49583;45.590;-122.498;2023-11-18T01:10:04;9.70;;;5.40;;
50631;SDS011;49583;45.590;-122.498;2023-11-18T01:12:20;7.80;;;5.70;;
50631;SDS011;49583;45.590;-122.498;2023-11-18T01:14:53;6.60;;;5.30;;
50631;SDS011;49583;45.590;-122.498;2023-11-18T01:17:19;6.20;;;5.20;;
50631;SDS011;49583;45.590;-122.498;2023-11-18T01:19:53;9.20;;;5.50;;
50631;SDS011;49583;45.590;-122.498;2023-11-18T01:22:16;8.70;;;5.80;;
50631;SDS011;49583;45.590;-122.498;2023-11-18T01:24:49;6.30;;;5.50;;
50631;SDS011;49583;45.590;-122.498;2023-11-18T01:27:12;7.90;;;5.30;;
50631;SDS011;49583;45.590;-122.498;2023-11-18T01:29:29;7.40;;;5.60;;
50631;SDS011;49583;45.590;-122.498;2023-11-18T01:31:42;7.00;;;5.30;;
50631;SDS011;49583;45.590;-122.498;2023-11-18T01:34:11;6.20;;;5.10;;
50631;SDS011;49583;45.590;-122.498;2023-11-18T01:36:44;6.70;;;4.70;;
50631;SDS011;49583;45.590;-122.498;2023-11-18T01:39:17;7.50;;;4.80;;
50631;SDS011;49583;45.590;-122.498;2023-11-18T01:41:33;7.70;;;4.70;;
50631;SDS011;49583;45.590;-122.498;2023-11-18T01:43:56;6.50;;;5.40;;
50631;SDS011;49583;45.590;-122.498;2023-11-18T01:46:11;6.90;;;5.80;;
50631;SDS011;49583;45.590;-122.498;2023-11-18T01:48:46;7.70;;;5.00;;
50631;SDS011;49583;45.590;-122.498;2023-11-18T01:51:03;7.10;;;5.20;;
50631;SDS011;49583;45.590;-122.498;2023-11-18T01:53:39;7.50;;;5.20;;
50631;SDS011;49583;45.590;-122.498;2023-11-18T01:56:17;6.00;;;5.10;;
50631;SDS011;49583;45.590;-122.498;2023-11-18T01:58:33;6.80;;;5.10;;
50631;SDS011;49583;45.590;-122.498;2023-11-18T02:01:08;8.40;;;5.50;;
50631;SDS011;49583;45.590;-122.498;2023-11-18T02:03:27;7.90;;;5.50;;
50631;SDS011;49583;45.590;-122.498;2023-11-18T02:05:51;6.10;;;4.50;;
50631;SDS011;49583;45.590;-122.498;2023-11-18T02:08:09;7.20;;;5.70;;
50631;SDS011;49583;45.590;-122.498;2023-11-18T02:10:23;8.50;;;8.30;;
50631;SDS011;49583;45.590;-122.498;2023-11-18T02:12:58;7.10;;;5.10;;
50631;SDS011;49583;45.590;-122.498;2023-11-18T02:15:42;7.40;;;4.90;;
50631;SDS011;49583;45.590;-122.498;2023-11-18T02:18:17;8.00;;;4.90;;
50631;SDS011;49583;45.590;-122.498;2023-11-18T02:20:33;7.30;;;4.90;;
50631;SDS011;49583;45.590;-122.498;2023-11-18T02:22:58;5.70;;;4.30;;
50631;SDS011;49583;45.590;-122.498;2023-11-18T02:25:22;5.30;;;4.10;;
50631;SDS011;49583;45.590;-122.498;2023-11-18T02:27:48;7.70;;;5.20;;
50631;SDS011;49583;45.590;-122.498;2023-11-18T02:30:02;5.80;;;4.50;;
50631;SDS011;49583;45.590;-122.498;2023-11-18T02:32:43;5.60;;;4.20;;
50631;SDS011;49583;45.590;-122.498;2023-11-18T02:35:28;8.50;;;4.30;;
50631;SDS011;49583;45.590;-122.498;2023-11-18T02:37:47;5.60;;;4.60;;
50631;SDS011;49583;45.590;-122.498;2023-11-18T02:40:07;4.90;;;4.40;;
50631;SDS011;49583;45.590;-122.498;2023-11-18T02:42:25;4.60;;;3.70;;
50631;SDS011;49583;45.590;-122.498;2023-11-18T02:44:43;5.40;;;3.60;;
50631;SDS011;49583;45.590;-122.498;2023-11-18T02:47:17;4.40;;;3.60;;
50631;SDS011;49583;45.590;-122.498;2023-11-18T02:49:51;4.50;;;3.70;;
50631;SDS011;49583;45.590;-122.498;2023-11-18T02:52:13;4.10;;;3.50;;
50631;SDS011;49583;45.590;-122.498;2023-11-18T02:54:25;4.30;;;3.50;;
50631;SDS011;49583;45.590;-122.498;2023-11-18T02:56:38;4.00;;;3.30;;
50631;SDS011;49583;45.590;-122.498;2023-11-18T02:59:03;5.10;;;3.60;;
50631;SDS011;49583;45.590;-122.498;2023-11-18T03:01:36;4.10;;;3.30;;
50631;SDS011;49583;45.590;-122.498;2023-11-18T03:03:55;4.60;;;3.00;;
50631;SDS011;49583;45.590;-122.498;2023-11-18T03:06:08;4.90;;;3.40;;
50631;SDS011;49583;45.590;-122.498;2023-11-18T03:08:21;4.70;;;3.30;;
50631;SDS011;49583;45.590;-122.498;2023-11-18T03:10:36;5.00;;;3.20;;
50631;SDS011;49583;45.590;-122.498;2023-11-18T03:12:52;6.50;;;3.20;;
50631;SDS011;49583;45.590;-122.498;2023-11-18T03:15:11;4.80;;;3.30;;
50631;SDS011;49583;45.590;-122.498;2023-11-18T03:17:35;4.30;;;2.60;;
50631;SDS011;49583;45.590;-122.498;2023-11-18T03:20:08;5.60;;;2.70;;
50631;SDS011;49583;45.590;-122.498;2023-11-18T03:22:36;4.30;;;3.20;;
50631;SDS011;49583;45.590;-122.498;2023-11-18T03:24:49;3.40;;;3.10;;
50631;SDS011;49583;45.590;-122.498;2023-11-18T03:27:01;4.80;;;2.90;;
50631;SDS011;49583;45.590;-122.498;2023-11-18T03:29:19;3.90;;;2.90;;
50631;SDS011;49583;45.590;-122.498;2023-11-18T03:31:37;5.70;;;3.10;;
50631;SDS011;49583;45.590;-122.498;2023-11-18T03:33:55;4.70;;;3.30;;
50631;SDS011;49583;45.590;-122.498;2023-11-18T03:36:08;3.60;;;2.60;;
50631;SDS011;49583;45.590;-122.498;2023-11-18T03:38:25;4.20;;;3.10;;
50631;SDS011;49583;45.590;-122.498;2023-11-18T03:40:58;4.10;;;3.50;;
50631;SDS011;49583;45.590;-122.498;2023-11-18T03:43:13;3.10;;;2.80;;
50631;SDS011;49583;45.590;-122.498;2023-11-18T03:45:36;4.10;;;2.50;;
50631;SDS011;49583;45.590;-122.498;2023-11-18T03:47:51;3.10;;;2.80;;
50631;SDS011;49583;45.590;-122.498;2023-11-18T03:50:06;3.90;;;3.20;;
50631;SDS011;49583;45.590;-122.498;2023-11-18T03:52:21;4.60;;;3.10;;
50631;SDS011;49583;45.590;-122.498;2023-11-18T03:54:46;2.90;;;2.60;;
50631;SDS011;49583;45.590;-122.498;2023-11-18T03:56:59;3.10;;;2.60;;
50631;SDS011;49583;45.590;-122.498;2023-11-18T03:59:33;5.80;;;2.90;;
50631;SDS011;49583;45.590;-122.498;2023-11-18T04:02:06;3.80;;;3.00;;
50631;SDS011;49583;45.590;-122.498;2023-11-18T04:04:31;4.70;;;2.30;;
50631;SDS011;49583;45.590;-122.498;2023-11-18T04:07:04;2.80;;;2.20;;
50631;SDS011;49583;45.590;-122.498;2023-11-18T04:09:27;3.50;;;2.50;;
50631;SDS011;49583;45.590;-122.498;2023-11-18T04:12:00;2.90;;;2.50;;
50631;SDS011;49583;45.590;-122.498;2023-11-18T04:14:23;3.90;;;2.30;;
50631;SDS011;49583;45.590;-122.498;2023-11-18T04:16:36;4.20;;;3.30;;
50631;SDS011;49583;45.590;-122.498;2023-11-18T04:18:49;3.40;;;2.70;;
50631;SDS011;49583;45.590;-122.498;2023-11-18T04:21:22;3.80;;;2.90;;
50631;SDS011;49583;45.590;-122.498;2023-11-18T04:23:34;5.50;;;3.00;;
50631;SDS011;49583;45.590;-122.498;2023-11-18T04:26:00;4.60;;;2.50;;
50631;SDS011;49583;45.590;-122.498;2023-11-18T04:28:13;2.60;;;2.20;;
50631;SDS011;49583;45.590;-122.498;2023-11-18T04:30:38;3.20;;;2.60;;
50631;SDS011;49583;45.590;-122.498;2023-11-18T04:33:01;4.70;;;2.50;;
50631;SDS011;49583;45.590;-122.498;2023-11-18T04:37:37;3.60;;;3.00;;
50631;SDS011;49583;45.590;-122.498;2023-11-18T04:40:01;3.30;;;2.50;;
50631;SDS011;49583;45.590;-122.498;2023-11-18T04:42:23;3.40;;;3.10;;
50631;SDS011;49583;45.590;-122.498;2023-11-18T04:44:57;6.20;;;3.00;;
50631;SDS011;49583;45.590;-122.498;2023-11-18T04:47:13;3.50;;;2.80;;
50631;SDS011;49583;45.590;-122.498;2023-11-18T04:49:30;4.00;;;3.30;;
50631;SDS011;49583;45.590;-122.498;2023-11-18T04:51:46;5.00;;;3.50;;
50631;SDS011;49583;45.590;-122.498;2023-11-18T04:54:18;3.60;;;3.10;;
50631;SDS011;49583;45.590;-122.498;2023-11-18T04:56:52;5.10;;;2.70;;
50631;SDS011;49583;45.590;-122.498;2023-11-18T04:59:05;3.00;;;2.70;;
50631;SDS011;49583;45.590;-122.498;2023-11-18T05:01:30;3.80;;;2.80;;
50631;SDS011;49583;45.590;-122.498;2023-11-18T05:04:05;5.00;;;3.90;;
50631;SDS011;49583;45.590;-122.498;2023-11-18T05:06:21;4.70;;;3.40;;
50631;SDS011;49583;45.590;-122.498;2023-11-18T05:11:14;4.20;;;3.40;;
50631;SDS011;49583;45.590;-122.498;2023-11-18T05:13:30;5.20;;;3.80;;
50631;SDS011;49583;45.590;-122.498;2023-11-18T05:15:54;5.50;;;3.90;;
50631;SDS011;49583;45.590;-122.498;2023-11-18T05:20:30;5.30;;;3.70;;
50631;SDS011;49583;45.590;-122.498;2023-11-18T05:23:04;4.00;;;3.50;;
50631;SDS011;49583;45.590;-122.498;2023-11-18T05:25:18;3.90;;;3.10;;
50631;SDS011;49583;45.590;-122.498;2023-11-18T05:27:53;4.50;;;3.40;;
50631;SDS011;49583;45.590;-122.498;2023-11-18T05:30:15;4.30;;;3.50;;
50631;SDS011;49583;45.590;-122.498;2023-11-18T05:32:29;4.40;;;2.90;;
50631;SDS011;49583;45.590;-122.498;2023-11-18T05:34:45;3.80;;;3.00;;
50631;SDS011;49583;45.590;-122.498;2023-11-18T05:36:58;3.40;;;3.00;;
50631;SDS011;49583;45.590;-122.498;2023-11-18T05:39:14;5.10;;;3.40;;
50631;SDS011;49583;45.590;-122.498;2023-11-18T05:41:48;4.00;;;3.60;;
50631;SDS011;49583;45.590;-122.498;2023-11-18T05:44:00;4.20;;;3.10;;
50631;SDS011;49583;45.590;-122.498;2023-11-18T05:46:26;4.40;;;3.50;;
50631;SDS011;49583;45.590;-122.498;2023-11-18T05:48:43;4.10;;;3.60;;
50631;SDS011;49583;45.590;-122.498;2023-11-18T05:51:00;3.90;;;3.10;;
50631;SDS011;49583;45.590;-122.498;2023-11-18T05:53:21;4.20;;;3.80;;
50631;SDS011;49583;45.590;-122.498;2023-11-18T05:56:00;3.70;;;3.20;;
50631;SDS011;49583;45.590;-122.498;2023-11-18T05:58:25;5.10;;;3.50;;
50631;SDS011;49583;45.590;-122.498;2023-11-18T06:00:38;6.60;;;3.40;;
50631;SDS011;49583;45.590;-122.498;2023-11-18T06:03:01;3.50;;;2.80;;
50631;SDS011;49583;45.590;-122.498;2023-11-18T06:05:34;3.40;;;2.90;;
50631;SDS011;49583;45.590;-122.498;2023-11-18T06:07:47;3.90;;;3.00;;
50631;SDS011;49583;45.590;-122.498;2023-11-18T06:10:05;3.50;;;2.90;;
50631;SDS011;49583;45.590;-122.498;2023-11-18T06:12:19;3.30;;;2.80;;
50631;SDS011;49583;45.590;-122.498;2023-11-18T06:14:32;3.10;;;2.60;;
50631;SDS011;49583;45.590;-122.498;2023-11-18T06:16:56;4.20;;;3.40;;
50631;SDS011;49583;45.590;-122.498;2023-11-18T06:19:18;4.80;;;3.20;;
50631;SDS011;49583;45.590;-122.498;2023-11-18T06:21:35;4.00;;;3.60;;
50631;SDS011;49583;45.590;-122.498;2023-11-18T06:23:48;3.80;;;3.10;;
50631;SDS011;49583;45.590;-122.498;2023-11-18T06:26:12;4.60;;;3.60;;
50631;SDS011;49583;45.590;-122.498;2023-11-18T06:28:26;5.40;;;3.80;;
50631;SDS011;49583;45.590;-122.498;2023-11-18T06:31:00;3.20;;;2.90;;
50631;SDS011;49583;45.590;-122.498;2023-11-18T06:33:16;5.00;;;4.00;;
50631;SDS011;49583;45.590;-122.498;2023-11-18T06:35:51;4.50;;;3.50;;
50631;SDS011;49583;45.590;-122.498;2023-11-18T06:38:06;4.00;;;3.60;;
50631;SDS011;49583;45.590;-122.498;2023-11-18T06:40:31;3.80;;;2.60;;
50631;SDS011;49583;45.590;-122.498;2023-11-18T06:43:04;4.10;;;3.20;;
50631;SDS011;49583;45.590;-122.498;2023-11-18T06:45:38;4.20;;;3.50;;
50631;SDS011;49583;45.590;-122.498;2023-11-18T06:47:56;4.80;;;3.70;;
50631;SDS011;49583;45.590;-122.498;2023-11-18T06:50:09;3.90;;;3.60;;
50631;SDS011;49583;45.590;-122.498;2023-11-18T06:52:43;4.20;;;3.50;;
50631;SDS011;49583;45.590;-122.498;2023-11-18T06:55:16;4.90;;;3.20;;
50631;SDS011;49583;45.590;-122.498;2023-11-18T06:57:49;4.80;;;3.10;;
50631;SDS011;49583;45.590;-122.498;2023-11-18T07:00:23;3.90;;;3.30;;
50631;SDS011;49583;45.590;-122.498;2023-11-18T07:02:56;4.90;;;3.40;;
50631;SDS011;49583;45.590;-122.498;2023-11-18T07:05:29;3.60;;;3.00;;
50631;SDS011;49583;45.590;-122.498;2023-11-18T07:08:04;4.40;;;3.30;;
50631;SDS011;49583;45.590;-122.498;2023-11-18T07:10:37;3.00;;;2.60;;
50631;SDS011;49583;45.590;-122.498;2023-11-18T07:13:10;5.50;;;2.70;;
50631;SDS011;49583;45.590;-122.498;2023-11-18T07:15:44;4.30;;;3.80;;
50631;SDS011;49583;45.590;-122.498;2023-11-18T07:18:07;3.90;;;3.10;;
50631;SDS011;49583;45.590;-122.498;2023-11-18T07:20:23;2.90;;;2.60;;
50631;SDS011;49583;45.590;-122.498;2023-11-18T07:22:47;3.40;;;3.00;;
50631;SDS011;49583;45.590;-122.498;2023-11-18T07:25:00;4.20;;;3.30;;
50631;SDS011;49583;45.590;-122.498;2023-11-18T07:27:35;3.60;;;2.90;;
50631;SDS011;49583;45.590;-122.498;2023-11-18T07:30:01;5.90;;;3.40;;
50631;SDS011;49583;45.590;-122.498;2023-11-18T07:32:29;4.90;;;2.80;;
50631;SDS011;49583;45.590;-122.498;2023-11-18T07:34:41;3.80;;;2.80;;
50631;SDS011;49583;45.590;-122.498;2023-11-18T07:37:07;3.60;;;2.80;;
50631;SDS011;49583;45.590;-122.498;2023-11-18T07:39:23;3.80;;;2.80;;
50631;SDS011;49583;45.590;-122.498;2023-11-18T07:41:51;3.60;;;2.80;;
50631;SDS011;49583;45.590;-122.498;2023-11-18T07:44:26;2.80;;;2.20;;
50631;SDS011;49583;45.590;-122.498;2023-11-18T07:46:50;4.80;;;2.70;;
50631;SDS011;49583;45.590;-122.498;2023-11-18T07:49:23;3.80;;;2.80;;
50631;SDS011;49583;45.590;-122.498;2023-11-18T07:51:56;4.40;;;2.20;;
50631;SDS011;49583;45.590;-122.498;2023-11-18T07:54:29;3.00;;;2.70;;
50631;SDS011;49583;45.590;-122.498;2023-11-18T07:57:03;5.30;;;2.70;;
50631;SDS011;49583;45.590;-122.498;2023-11-18T07:59:38;3.40;;;2.90;;
50631;SDS011;49583;45.590;-122.498;2023-11-18T08:02:11;3.30;;;3.00;;
50631;SDS011;49583;45.590;-122.498;2023-11-18T08:04:45;3.10;;;2.10;;
50631;SDS011;49583;45.590;-122.498;2023-11-18T08:07:16;3.70;;;2.80;;
50631;SDS011;49583;45.590;-122.498;2023-11-18T08:10:09;2.70;;;2.50;;
50631;SDS011;49583;45.590;-122.498;2023-11-18T08:12:30;5.30;;;2.10;;
50631;SDS011;49583;45.590;-122.498;2023-11-18T08:14:50;2.80;;;2.40;;
50631;SDS011;49583;45.590;-122.498;2023-11-18T08:17:09;2.70;;;2.40;;
50631;SDS011;49583;45.590;-122.498;2023-11-18T08:19:29;4.90;;;2.40;;
50631;SDS011;49583;45.590;-122.498;2023-11-18T08:21:53;2.40;;;2.20;;
50631;SDS011;49583;45.590;-122.498;2023-11-18T08:24:33;2.70;;;2.40;;
50631;SDS011;49583;45.590;-122.498;2023-11-18T08:27:11;4.60;;;2.70;;
50631;SDS011;49583;45.590;-122.498;2023-11-18T08:29:38;3.30;;;3.00;;
50631;SDS011;49583;45.590;-122.498;2023-11-18T08:32:06;4.10;;;3.00;;
50631;SDS011;49583;45.590;-122.498;2023-11-18T08:34:33;4.70;;;3.50;;
50631;SDS011;49583;45.590;-122.498;2023-11-18T08:36:51;5.40;;;4.10;;
50631;SDS011;49583;45.590;-122.498;2023-11-18T08:39:16;9.20;;;3.80;;
50631;SDS011;49583;45.590;-122.498;2023-11-18T08:41:45;5.50;;;4.00;;
50631;SDS011;49583;45.590;-122.498;2023-11-18T08:44:14;5.50;;;4.60;;
50631;SDS011;49583;45.590;-122.498;2023-11-18T08:46:43;6.50;;;4.70;;
50631;SDS011;49583;45.590;-122.498;2023-11-18T08:48:56;7.10;;;4.90;;
50631;SDS011;49583;45.590;-122.498;2023-11-18T08:51:17;6.80;;;4.90;;
50631;SDS011;49583;45.590;-122.498;2023-11-18T08:53:37;7.60;;;5.50;;
50631;SDS011;49583;45.590;-122.498;2023-11-18T08:55:54;5.90;;;4.80;;
50631;SDS011;49583;45.590;-122.498;2023-11-18T08:58:07;7.30;;;5.00;;
50631;SDS011;49583;45.590;-122.498;2023-11-18T09:00:27;7.70;;;4.90;;
50631;SDS011;49583;45.590;-122.498;2023-11-18T09:03:01;5.30;;;4.80;;
50631;SDS011;49583;45.590;-122.498;2023-11-18T09:05:28;7.10;;;4.70;;
50631;SDS011;49583;45.590;-122.498;2023-11-18T09:07:43;7.00;;;4.60;;
50631;SDS011;49583;45.590;-122.498;2023-11-18T09:09:58;5.50;;;4.70;;
50631;SDS011;49583;45.590;-122.498;2023-11-18T09:12:15;7.40;;;5.10;;
50631;SDS011;49583;45.590;-122.498;2023-11-18T09:14:28;6.90;;;5.20;;
50631;SDS011;49583;45.590;-122.498;2023-11-18T09:17:01;6.70;;;5.10;;
50631;SDS011;49583;45.590;-122.498;2023-11-18T09:19:25;5.50;;;5.00;;
50631;SDS011;49583;45.590;-122.498;2023-11-18T09:21:48;5.60;;;4.40;;
50631;SDS011;49583;45.590;-122.498;2023-11-18T09:24:02;8.00;;;5.50;;
50631;SDS011;49583;45.590;-122.498;2023-11-18T09:26:23;5.80;;;5.30;;
50631;SDS011;49583;45.590;-122.498;2023-11-18T09:28:40;6.40;;;5.80;;
50631;SDS011;49583;45.590;-122.498;2023-11-18T09:31:05;7.80;;;6.70;;
50631;SDS011;49583;45.590;-122.498;2023-11-18T09:33:22;9.40;;;7.20;;
50631;SDS011;49583;45.590;-122.498;2023-11-18T09:35:37;7.50;;;6.70;;
50631;SDS011;49583;45.590;-122.498;2023-11-18T09:37:49;9.70;;;6.50;;
50631;SDS011;49583;45.590;-122.498;2023-11-18T09:40:02;6.90;;;5.90;;
50631;SDS011;49583;45.590;-122.498;2023-11-18T09:42:30;6.90;;;5.30;;
50631;SDS011;49583;45.590;-122.498;2023-11-18T09:44:54;6.80;;;5.30;;
50631;SDS011;49583;45.590;-122.498;2023-11-18T09:47:13;6.60;;;5.50;;
50631;SDS011;49583;45.590;-122.498;2023-11-18T09:49:32;7.10;;;5.20;;
50631;SDS011;49583;45.590;-122.498;2023-11-18T09:51:55;8.00;;;6.50;;
50631;SDS011;49583;45.590;-122.498;2023-11-18T09:54:15;10.50;;;6.40;;
50631;SDS011;49583;45.590;-122.498;2023-11-18T09:56:41;8.20;;;5.50;;
50631;SDS011;49583;45.590;-122.498;2023-11-18T09:59:10;9.60;;;5.50;;
50631;SDS011;49583;45.590;-122.498;2023-11-18T10:01:27;6.70;;;4.80;;
50631;SDS011;49583;45.590;-122.498;2023-11-18T10:03:48;5.10;;;4.20;;
50631;SDS011;49583;45.590;-122.498;2023-11-18T10:06:07;8.60;;;5.40;;
50631;SDS011;49583;45.590;-122.498;2023-11-18T10:08:22;6.70;;;4.80;;
50631;SDS011;49583;45.590;-122.498;2023-11-18T10:10:38;7.80;;;5.30;;
50631;SDS011;49583;45.590;-122.498;2023-11-18T10:13:14;8.00;;;4.60;;
50631;SDS011;49583;45.590;-122.498;2023-11-18T10:15:39;5.70;;;4.30;;
50631;SDS011;49583;45.590;-122.498;2023-11-18T10:17:57;8.00;;;5.00;;
50631;SDS011;49583;45.590;-122.498;2023-11-18T10:20:20;4.30;;;3.40;;
50631;SDS011;49583;45.590;-122.498;2023-11-18T10:23:10;5.60;;;4.00;;
50631;SDS011;49583;45.590;-122.498;2023-11-18T10:25:38;3.60;;;3.20;;
50631;SDS011;49583;45.590;-122.498;2023-11-18T10:27:55;4.10;;;3.20;;
50631;SDS011;49583;45.590;-122.498;2023-11-18T10:30:10;5.20;;;4.00;;
50631;SDS011;49583;45.590;-122.498;2023-11-18T10:32:29;3.90;;;3.10;;
50631;SDS011;49583;45.590;-122.498;2023-11-18T10:34:46;4.00;;;3.20;;
50631;SDS011;49583;45.590;-122.498;2023-11-18T10:37:09;4.30;;;3.30;;
50631;SDS011;49583;45.590;-122.498;2023-11-18T10:39:24;3.20;;;2.80;;
50631;SDS011;49583;45.590;-122.498;2023-11-18T10:41:42;7.00;;;3.70;;
50631;SDS011;49583;45.590;-122.498;2023-11-18T10:44:17;4.10;;;3.40;;
50631;SDS011;49583;45.590;-122.498;2023-11-18T10:46:31;4.20;;;3.10;;
50631;SDS011;49583;45.590;-122.498;2023-11-18T10:48:45;5.80;;;3.60;;
50631;SDS011;49583;45.590;-122.498;2023-11-18T10:50:59;3.70;;;3.20;;
50631;SDS011;49583;45.590;-122.498;2023-11-18T10:53:17;4.70;;;3.10;;
50631;SDS011;49583;45.590;-122.498;2023-11-18T10:55:42;3.40;;;2.70;;
50631;SDS011;49583;45.590;-122.498;2023-11-18T10:57:59;4.60;;;2.80;;
50631;SDS011;49583;45.590;-122.498;2023-11-18T11:00:15;2.70;;;2.40;;
50631;SDS011;49583;45.590;-122.498;2023-11-18T11:02:38;3.10;;;2.40;;
50631;SDS011;49583;45.590;-122.498;2023-11-18T11:04:51;3.00;;;2.70;;
50631;SDS011;49583;45.590;-122.498;2023-11-18T11:07:06;4.30;;;2.40;;
50631;SDS011;49583;45.590;-122.498;2023-11-18T11:09:20;3.60;;;2.70;;
50631;SDS011;49583;45.590;-122.498;2023-11-18T11:11:39;3.50;;;2.70;;
50631;SDS011;49583;45.590;-122.498;2023-11-18T11:14:06;7.40;;;3.20;;
50631;SDS011;49583;45.590;-122.498;2023-11-18T11:16:32;4.00;;;3.00;;
50631;SDS011;49583;45.590;-122.498;2023-11-18T11:19:01;3.30;;;2.90;;
50631;SDS011;49583;45.590;-122.498;2023-11-18T11:21:28;3.30;;;2.40;;
50631;SDS011;49583;45.590;-122.498;2023-11-18T11:23:55;3.60;;;2.80;;
50631;SDS011;49583;45.590;-122.498;2023-11-18T11:26:37;3.70;;;3.10;;
50631;SDS011;49583;45.590;-122.498;2023-11-18T11:29:07;4.60;;;3.00;;
50631;SDS011;49583;45.590;-122.498;2023-11-18T11:31:50;3.30;;;2.30;;
50631;SDS011;49583;45.590;-122.498;2023-11-18T11:34:20;3.30;;;2.80;;
50631;SDS011;49583;45.590;-122.498;2023-11-18T11:36:37;3.30;;;3.00;;
50631;SDS011;49583;45.590;-122.498;2023-11-18T11:39:18;4.50;;;3.10;;
50631;SDS011;49583;45.590;-122.498;2023-11-18T11:41:36;4.80;;;3.00;;
50631;SDS011;49583;45.590;-122.498;2023-11-18T11:43:55;2.80;;;2.50;;
50631;SDS011;49583;45.590;-122.498;2023-11-18T11:49:15;3.30;;;2.90;;
50631;SDS011;49583;45.590;-122.498;2023-11-18T11:51:30;3.10;;;2.50;;
50631;SDS011;49583;45.590;-122.498;2023-11-18T11:53:47;4.00;;;2.70;;
50631;SDS011;49583;45.590;-122.498;2023-11-18T11:56:04;3.30;;;3.00;;
50631;SDS011;49583;45.590;-122.498;2023-11-18T11:58:30;4.60;;;3.20;;
50631;SDS011;49583;45.590;-122.498;2023-11-18T12:00:44;4.10;;;3.00;;
50631;SDS011;49583;45.590;-122.498;2023-11-18T12:02:57;5.50;;;2.90;;
50631;SDS011;49583;45.590;-122.498;2023-11-18T12:05:15;4.30;;;3.60;;
50631;SDS011;49583;45.590;-122.498;2023-11-18T12:07:33;3.50;;;3.00;;
50631;SDS011;49583;45.590;-122.498;2023-11-18T12:09:49;3.50;;;3.00;;
50631;SDS011;49583;45.590;-122.498;2023-11-18T12:12:05;5.30;;;3.40;;
50631;SDS011;49583;45.590;-122.498;2023-11-18T12:14:26;3.20;;;2.70;;
50631;SDS011;49583;45.590;-122.498;2023-11-18T12:17:01;4.60;;;3.10;;
50631;SDS011;49583;45.590;-122.498;2023-11-18T12:19:31;4.60;;;3.20;;
50631;SDS011;49583;45.590;-122.498;2023-11-18T12:21:57;4.60;;;3.40;;
50631;SDS011;49583;45.590;-122.498;2023-11-18T12:24:20;5.70;;;3.50;;
50631;SDS011;49583;45.590;-122.498;2023-11-18T12:26:42;4.00;;;3.40;;
50631;SDS011;49583;45.590;-122.498;2023-11-18T12:28:57;4.90;;;3.40;;
50631;SDS011;49583;45.590;-122.498;2023-11-18T12:31:12;4.00;;;3.30;;
50631;SDS011;49583;45.590;-122.498;2023-11-18T12:34:04;3.60;;;3.00;;
50631;SDS011;49583;45.590;-122.498;2023-11-18T12:39:14;3.40;;;2.20;;
50631;SDS011;49583;45.590;-122.498;2023-11-18T12:42:03;3.20;;;2.90;;
50631;SDS011;49583;45.590;-122.498;2023-11-18T12:44:28;4.00;;;3.40;;
50631;SDS011;49583;45.590;-122.498;2023-11-18T12:46:50;3.60;;;2.90;;
50631;SDS011;49583;45.590;-122.498;2023-11-18T12:49:04;3.00;;;2.70;;
50631;SDS011;49583;45.590;-122.498;2023-11-18T12:51:22;3.50;;;2.80;;
50631;SDS011;49583;45.590;-122.498;2023-11-18T12:53:35;4.90;;;2.70;;
50631;SDS011;49583;45.590;-122.498;2023-11-18T12:55:48;3.70;;;3.20;;
50631;SDS011;49583;45.590;-122.498;2023-11-18T12:58:02;3.90;;;3.20;;
50631;SDS011;49583;45.590;-122.498;2023-11-18T13:00:15;3.60;;;2.80;;
50631;SDS011;49583;45.590;-122.498;2023-11-18T13:02:34;3.50;;;3.20;;
50631;SDS011;49583;45.590;-122.498;2023-11-18T13:04:48;3.60;;;2.70;;
50631;SDS011;49583;45.590;-122.498;2023-11-18T13:07:01;3.30;;;3.00;;
50631;SDS011;49583;45.590;-122.498;2023-11-18T13:09:16;3.70;;;2.60;;
50631;SDS011;49583;45.590;-122.498;2023-11-18T13:11:36;3.60;;;3.10;;
50631;SDS011;49583;45.590;-122.498;2023-11-18T13:13:50;4.50;;;3.70;;
50631;SDS011;49583;45.590;-122.498;2023-11-18T13:16:03;6.40;;;3.50;;
50631;SDS011;49583;45.590;-122.498;2023-11-18T13:18:17;3.80;;;3.10;;
50631;SDS011;49583;45.590;-122.498;2023-11-18T13:20:30;6.10;;;3.50;;
50631;SDS011;49583;45.590;-122.498;2023-11-18T13:22:43;3.70;;;2.80;;
50631;SDS011;49583;45.590;-122.498;2023-11-18T13:24:56;3.60;;;2.70;;
50631;SDS011;49583;45.590;-122.498;2023-11-18T13:27:12;3.90;;;3.30;;
50631;SDS011;49583;45.590;-122.498;2023-11-18T13:29:26;3.70;;;2.90;;
50631;SDS011;49583;45.590;-122.498;2023-11-18T13:31:39;4.80;;;3.20;;
50631;SDS011;49583;45.590;-122.498;2023-11-18T13:33:53;4.20;;;3.40;;
50631;SDS011;49583;45.590;-122.498;2023-11-18T13:36:09;4.20;;;3.10;;
50631;SDS011;49583;45.590;-122.498;2023-11-18T13:38:22;4.00;;;3.50;;
50631;SDS011;49583;45.590;-122.498;2023-11-18T13:40:44;4.20;;;3.20;;
50631;SDS011;49583;45.590;-122.498;2023-11-18T13:43:05;4.60;;;3.80;;
50631;SDS011;49583;45.590;-122.498;2023-11-18T13:45:17;4.20;;;3.70;;
50631;SDS011;49583;45.590;-122.498;2023-11-18T13:47:43;3.70;;;3.10;;
50631;SDS011;49583;45.590;-122.498;2023-11-18T13:52:18;3.50;;;3.20;;
50631;SDS011;49583;45.590;-122.498;2023-11-18T13:54:33;4.40;;;3.40;;
50631;SDS011;49583;45.590;-122.498;2023-11-18T13:56:47;3.40;;;3.10;;
50631;SDS011;49583;45.590;-122.498;2023-11-18T13:59:01;3.90;;;3.30;;